createdAt,value
2018-04-06T00:00:46.444Z,83.80
2018-04-06T00:05:38.655Z,84.80
2018-04-06T00:10:30.054Z,84.70
2018-04-06T00:15:22.194Z,86.40
2018-04-06T00:20:14.337Z,86.90
2018-04-06T00:25:06.468Z,87.70
2018-04-06T00:29:58.625Z,88.00
2018-04-06T00:34:50.758Z,87.80
2018-04-06T00:39:42.171Z,87.70
2018-04-06T00:44:33.566Z,87.90
2018-04-06T00:49:25.015Z,88.30
2018-04-06T00:54:16.479Z,88.70
2018-04-06T00:59:07.894Z,89.00
2018-04-06T01:03:59.252Z,89.40
2018-04-06T01:08:50.667Z,89.20
2018-04-06T01:13:42.185Z,89.60
2018-04-06T01:18:33.621Z,90.00
2018-04-06T01:23:25.016Z,90.20
2018-04-06T01:28:17.175Z,89.90
2018-04-06T01:33:08.541Z,89.90
2018-04-06T01:37:59.958Z,89.60
2018-04-06T01:42:51.344Z,88.90
2018-04-06T01:47:43.457Z,88.40
2018-04-06T01:52:36.071Z,88.30
2018-04-06T01:57:27.492Z,88.30
2018-04-06T02:02:19.683Z,88.20
2018-04-06T02:07:11.065Z,88.10
2018-04-06T02:12:03.229Z,88.60
2018-04-06T02:16:54.646Z,88.50
2018-04-06T02:21:46.917Z,89.40
2018-04-06T02:26:38.319Z,89.30
2018-04-06T02:31:30.462Z,90.00
2018-04-06T02:36:22.691Z,89.80
2018-04-06T02:41:14.119Z,89.70
2018-04-06T02:46:05.558Z,89.40
2018-04-06T02:50:57.044Z,88.70
2018-04-06T02:55:49.454Z,88.80
2018-04-06T03:00:41.580Z,88.20
2018-04-06T03:05:32.978Z,88.80
2018-04-06T03:10:24.356Z,87.80
2018-04-06T03:15:16.303Z,88.20
2018-04-06T03:20:07.712Z,88.70
2018-04-06T03:24:59.094Z,88.50
2018-04-06T03:29:51.271Z,89.30
2018-04-06T03:34:42.662Z,89.20
2018-04-06T03:39:34.789Z,87.70
2018-04-06T03:44:26.926Z,87.70
2018-04-06T03:49:18.278Z,87.60
2018-04-06T03:54:09.679Z,88.30
2018-04-06T03:59:01.144Z,88.80
2018-04-06T04:03:52.510Z,89.00
2018-04-06T04:08:43.906Z,88.70
2018-04-06T04:13:35.785Z,88.70
2018-04-06T04:18:27.200Z,88.80
2018-04-06T04:23:18.654Z,89.00
2018-04-06T04:28:10.591Z,89.10
2018-04-06T04:33:01.974Z,89.10
2018-04-06T04:37:53.389Z,89.50
2018-04-06T04:42:44.923Z,89.80
2018-04-06T04:47:36.384Z,89.70
2018-04-06T04:52:28.664Z,90.40
2018-04-06T04:57:20.024Z,90.00
2018-04-06T05:02:12.530Z,90.20
2018-04-06T05:07:04.692Z,90.30
2018-04-06T05:11:56.800Z,90.20
2018-04-06T05:16:48.202Z,90.20
2018-04-06T05:21:39.594Z,89.70
2018-04-06T05:26:31.725Z,88.40
2018-04-06T05:31:23.229Z,88.40
2018-04-06T05:36:14.666Z,88.10
2018-04-06T05:41:06.155Z,87.80
2018-04-06T05:45:57.521Z,87.40
2018-04-06T05:50:49.046Z,87.00
2018-04-06T05:55:41.301Z,86.80
2018-04-06T06:00:32.669Z,86.00
2018-04-06T06:05:25.579Z,75.10
2018-04-06T06:10:16.981Z,75.10
2018-04-06T06:15:09.104Z,61.30
2018-04-06T06:20:00.485Z,61.10
2018-04-06T06:24:51.915Z,54.70
2018-04-06T06:29:43.337Z,55.70
2018-04-06T06:34:34.747Z,53.90
2018-04-06T06:39:27.485Z,53.30
2018-04-06T06:44:18.934Z,53.30
2018-04-06T06:49:11.114Z,48.20
2018-04-06T06:54:02.545Z,47.80
2018-04-06T06:58:53.927Z,47.50
2018-04-06T07:03:45.367Z,48.00
2018-04-06T07:08:36.752Z,48.70
2018-04-06T07:13:28.210Z,44.10
2018-04-06T07:18:19.678Z,43.00
2018-04-06T07:23:11.925Z,46.70
2018-04-06T07:28:04.072Z,46.00
2018-04-06T07:32:56.277Z,43.90
2018-04-06T07:37:47.721Z,43.50
2018-04-06T07:42:39.332Z,45.90
2018-04-06T07:47:30.703Z,44.40
2018-04-06T07:52:22.115Z,42.00
2018-04-06T07:57:13.564Z,42.60
2018-04-06T08:02:05.117Z,41.30
2018-04-06T08:06:56.534Z,44.90
2018-04-06T08:11:47.880Z,43.50
2018-04-06T08:16:40.074Z,44.20
2018-04-06T08:21:31.469Z,43.50
2018-04-06T08:26:23.672Z,42.20
2018-04-06T08:31:15.060Z,42.10
2018-04-06T08:36:06.462Z,40.50
2018-04-06T08:40:59.363Z,38.50
2018-04-06T08:45:50.748Z,38.40
2018-04-06T08:50:42.119Z,36.80
2018-04-06T08:55:33.509Z,37.30
2018-04-06T09:00:24.884Z,36.50
2018-04-06T09:05:16.348Z,38.40
2018-04-06T09:10:07.780Z,37.70
2018-04-06T09:14:59.203Z,36.70
2018-04-06T09:19:50.618Z,39.00
2018-04-06T09:24:42.128Z,38.20
2018-04-06T09:29:34.407Z,35.00
2018-04-06T09:34:25.945Z,35.60
2018-04-06T09:39:17.328Z,33.70
2018-04-06T09:44:08.710Z,34.70
2018-04-06T09:49:00.132Z,35.60
2018-04-06T09:53:51.474Z,34.90
2018-04-06T09:58:42.856Z,33.90
2018-04-06T10:03:34.272Z,33.00
2018-04-06T10:08:25.700Z,32.80
2018-04-06T10:13:17.833Z,34.20
2018-04-06T10:18:09.212Z,35.10
2018-04-06T10:23:01.396Z,37.00
2018-04-06T10:27:52.776Z,36.90
2018-04-06T10:32:44.964Z,38.40
2018-04-06T10:37:36.456Z,38.40
2018-04-06T10:42:27.840Z,38.70
2018-04-06T10:47:19.302Z,38.70
2018-04-06T10:52:10.788Z,38.00
2018-04-06T10:57:03.165Z,37.30
2018-04-06T11:01:55.461Z,37.50
2018-04-06T11:06:46.981Z,37.40
2018-04-06T11:11:38.336Z,37.50
2018-04-06T11:16:30.468Z,37.40
2018-04-06T11:21:22.474Z,37.30
2018-04-06T11:26:13.891Z,37.10
2018-04-06T11:31:05.796Z,36.70
2018-04-06T11:35:59.354Z,36.90
2018-04-06T11:40:50.760Z,36.90
2018-04-06T11:45:42.211Z,36.90
2018-04-06T11:50:33.592Z,37.10
2018-04-06T11:55:25.001Z,36.60
2018-04-06T12:00:17.164Z,35.50
2018-04-06T12:05:09.297Z,35.60
2018-04-06T12:10:01.724Z,35.70
2018-04-06T12:14:53.108Z,35.20
2018-04-06T12:19:44.488Z,33.30
2018-04-06T12:24:35.916Z,32.70
2018-04-06T12:29:28.044Z,32.10
2018-04-06T12:34:19.551Z,32.00
2018-04-06T12:39:11.033Z,31.60
2018-04-06T12:44:02.432Z,31.10
2018-04-06T12:48:53.936Z,31.20
2018-04-06T12:53:45.250Z,31.40
2018-04-06T12:58:36.660Z,30.60
2018-04-06T13:03:28.153Z,30.60
2018-04-06T13:08:19.678Z,29.80
2018-04-06T13:13:11.099Z,30.30
2018-04-06T13:18:03.244Z,30.00
2018-04-06T13:22:55.424Z,30.50
2018-04-06T13:27:47.722Z,30.50
2018-04-06T13:32:39.115Z,29.80
2018-04-06T13:37:30.461Z,29.40
2018-04-06T13:42:21.864Z,29.80
2018-04-06T13:47:13.232Z,29.70
2018-04-06T13:52:04.661Z,30.20
2018-04-06T13:56:56.032Z,29.90
2018-04-06T14:01:48.218Z,29.50
2018-04-06T14:06:39.600Z,29.40
2018-04-06T14:11:31.820Z,29.30
2018-04-06T14:16:23.204Z,29.20
2018-04-06T14:21:14.620Z,28.90
2018-04-06T14:26:06.764Z,28.40
2018-04-06T14:30:58.898Z,28.50
2018-04-06T14:35:50.417Z,28.40
2018-04-06T14:40:41.806Z,28.60
2018-04-06T14:45:33.199Z,28.30
2018-04-06T14:50:25.327Z,28.00
2018-04-06T14:55:16.720Z,27.90
2018-04-06T15:00:08.157Z,27.90
2018-04-06T15:04:59.521Z,28.20
2018-04-06T15:09:51.069Z,27.90
2018-04-06T15:14:42.451Z,27.90
2018-04-06T15:19:33.873Z,27.70
2018-04-06T15:24:25.272Z,28.00
2018-04-06T15:29:17.410Z,28.10
2018-04-06T15:34:08.836Z,28.00
2018-04-06T15:39:00.320Z,28.20
2018-04-06T15:43:51.692Z,28.00
2018-04-06T15:48:43.076Z,28.00
2018-04-06T15:53:34.530Z,27.60
2018-04-06T15:58:26.131Z,28.20
2018-04-06T16:03:17.618Z,28.30
2018-04-06T16:08:09.075Z,28.20
2018-04-06T16:13:01.368Z,27.90
2018-04-06T16:17:52.860Z,27.90
2018-04-06T16:22:45.020Z,27.80
2018-04-06T16:27:37.238Z,27.50
2018-04-06T16:32:29.669Z,27.40
2018-04-06T16:37:21.127Z,27.90
2018-04-06T16:42:12.523Z,27.60
2018-04-06T16:47:04.646Z,27.60
2018-04-06T16:51:56.050Z,27.60
2018-04-06T16:56:47.444Z,27.90
2018-04-06T17:01:38.890Z,28.20
2018-04-06T17:06:30.276Z,28.50
2018-04-06T17:11:21.667Z,28.60
2018-04-06T17:16:13.146Z,28.30
2018-04-06T17:21:04.563Z,28.90
2018-04-06T17:25:55.941Z,29.10
2018-04-06T17:30:47.342Z,29.20
2018-04-06T17:35:38.734Z,29.70
2018-04-06T17:40:30.874Z,30.30
2018-04-06T17:45:23.063Z,30.70
2018-04-06T17:50:14.483Z,30.60
2018-04-06T17:55:06.635Z,31.90
2018-04-06T17:59:58.018Z,31.80
2018-04-06T18:04:50.109Z,32.00
2018-04-06T18:09:42.224Z,32.90
2018-04-06T18:14:33.621Z,32.80
2018-04-06T18:19:25.091Z,33.50
2018-04-06T18:24:16.429Z,33.20
2018-04-06T18:29:07.840Z,33.50
2018-04-06T18:33:59.248Z,34.20
2018-04-06T18:38:50.646Z,35.10
2018-04-06T18:43:42.050Z,35.00
2018-04-06T18:48:34.838Z,35.40
2018-04-06T18:53:27.042Z,36.10
2018-04-06T18:58:18.428Z,36.00
2018-04-06T19:03:09.819Z,36.40
2018-04-06T19:08:01.310Z,36.90
2018-04-06T19:12:52.735Z,37.10
2018-04-06T19:17:44.130Z,37.20
2018-04-06T19:22:36.353Z,38.30
2018-04-06T19:27:27.787Z,38.20
2018-04-06T19:32:19.182Z,38.20
2018-04-06T19:37:10.594Z,38.60
2018-04-06T19:42:02.034Z,38.60
2018-04-06T19:46:53.460Z,39.00
2018-04-06T19:51:44.843Z,38.90
2018-04-06T19:56:36.264Z,38.80
2018-04-06T20:01:27.654Z,39.10
2018-04-06T20:06:19.038Z,39.50
2018-04-06T20:11:10.418Z,39.70
2018-04-06T20:16:01.858Z,40.10
2018-04-06T20:20:53.266Z,40.10
2018-04-06T20:25:45.398Z,40.70
2018-04-06T20:30:37.532Z,41.10
2018-04-06T20:35:29.667Z,41.00
2018-04-06T20:40:22.391Z,41.60
2018-04-06T20:45:13.809Z,41.50
2018-04-06T20:50:05.970Z,41.70
2018-04-06T20:54:57.420Z,41.60
2018-04-06T20:59:48.878Z,41.90
2018-04-06T21:04:40.244Z,42.30
2018-04-06T21:09:32.413Z,42.80
2018-04-06T21:14:23.903Z,42.70
2018-04-06T21:19:15.297Z,43.00
2018-04-06T21:24:06.758Z,43.10
2018-04-06T21:28:58.173Z,43.00
2018-04-06T21:33:49.566Z,43.30
2018-04-06T21:38:40.980Z,43.30
2018-04-06T21:43:33.144Z,44.10
2018-04-06T21:48:24.663Z,43.90
2018-04-06T21:53:17.828Z,44.30
2018-04-06T21:58:09.972Z,44.70
2018-04-06T22:03:02.580Z,45.50
2018-04-06T22:07:53.990Z,44.80
2018-04-06T22:12:45.382Z,45.20
2018-04-06T22:17:37.502Z,45.70
2018-04-06T22:22:28.895Z,45.70
2018-04-06T22:27:20.299Z,46.00
2018-04-06T22:32:11.700Z,46.20
2018-04-06T22:37:03.104Z,46.30
2018-04-06T22:41:54.512Z,46.90
2018-04-06T22:46:46.652Z,47.00
2018-04-06T22:51:38.800Z,47.20
2018-04-06T22:56:30.968Z,47.30
2018-04-06T23:01:22.360Z,47.20
2018-04-06T23:06:13.801Z,47.60
2018-04-06T23:11:05.943Z,47.60
2018-04-06T23:15:57.340Z,47.40
2018-04-06T23:20:48.799Z,48.00
2018-04-06T23:25:41.680Z,48.10
2018-04-06T23:30:33.857Z,48.40
2018-04-06T23:35:25.280Z,48.10
2018-04-06T23:40:17.383Z,48.60
2018-04-06T23:45:08.811Z,48.50
2018-04-06T23:50:00.267Z,48.70
2018-04-06T23:54:51.659Z,48.70
2018-04-06T23:59:43.062Z,48.70
